Time;durP1;ratioP1;P1;durP2;ratioP2;P2;SDS_P1;SDS_P2;PMS_P1;PMS_P2;Temp;Humidity;BMP_temperature;BMP_pressure;BME280_temperature;BME280_humidity;BME280_pressure;Samples;Min_cycle;Max_cycle;Signal;HPM_P1;HPM_P2
2022/05/22 00:02:01;;;;;;;10.85;6.78;;;;;;;12.68;76.11;101747.13;5007385;28;20361;-85
2022/05/22 00:04:26;;;;;;;12.65;6.72;;;;;;;12.61;76.56;101753.69;5005585;28;20029;-85
2022/05/22 00:06:52;;;;;;;14.88;6.75;;;;;;;12.56;76.73;101753.03;5003884;28;20025;-85
2022/05/22 00:09:17;;;;;;;11.70;6.57;;;;;;;12.50;77.57;101744.41;5007561;28;20104;-85
2022/05/22 00:11:42;;;;;;;12.32;7.53;;;;;;;12.45;77.21;101742.81;5010092;28;20033;-85
2022/05/22 00:14:11;;;;;;;13.18;7.35;;;;;;;12.40;77.38;101742.16;5008686;28;20403;-85
2022/05/22 00:16:40;;;;;;;10.77;6.75;;;;;;;12.33;77.97;101731.81;5009635;28;20033;-85
2022/05/22 00:19:26;;;;;;;11.90;6.57;;;;;;;12.24;78.00;101735.75;5004024;28;20033;-86
2022/05/22 00:21:51;;;;;;;15.93;7.15;;;;;;;12.18;78.17;101736.91;5005134;28;20403;-85
2022/05/22 00:24:20;;;;;;;16.90;7.70;;;;;;;12.12;78.40;101734.50;5010075;28;20124;-85
2022/05/22 00:26:46;;;;;;;12.85;7.53;;;;;;;12.07;78.63;101736.47;5007924;28;20037;-85
2022/05/22 00:29:11;;;;;;;15.82;8.85;;;;;;;12.06;79.01;101733.88;5007953;28;20045;-85
2022/05/22 00:31:36;;;;;;;17.85;8.68;;;;;;;12.07;79.36;101738.28;5009109;28;20427;-85
2022/05/22 00:34:03;;;;;;;15.40;8.77;;;;;;;12.07;79.42;101728.47;5005916;28;20640;-85
2022/05/22 00:36:28;;;;;;;16.10;8.80;;;;;;;12.04;80.00;101725.06;5007481;28;20058;-85
2022/05/22 00:38:53;;;;;;;12.18;7.70;;;;;;;12.02;79.69;101724.28;5008449;28;20089;-85
2022/05/22 00:41:19;;;;;;;14.68;8.13;;;;;;;12.04;79.65;101727.72;5008874;28;20434;-85
2022/05/22 00:43:47;;;;;;;15.18;9.00;;;;;;;12.04;80.06;101727.72;5008537;28;20030;-85
2022/05/22 00:46:15;;;;;;;13.05;7.97;;;;;;;12.04;79.63;101719.72;5008585;28;20034;-86
2022/05/22 00:48:44;;;;;;;12.45;7.63;;;;;;;12.08;79.98;101724.00;5007874;28;20038;-85
2022/05/22 00:51:15;;;;;;;13.02;7.40;;;;;;;12.09;80.10;101717.75;5007429;28;20450;-85
2022/05/22 00:53:50;;;;;;;10.50;6.72;;;;;;;12.10;80.21;101720.34;5008030;28;20041;-85
2022/05/22 00:56:20;;;;;;;11.93;7.40;;;;;;;12.09;79.77;101715.94;5008927;28;20479;-85
2022/05/22 00:58:47;;;;;;;13.95;7.70;;;;;;;12.09;79.84;101718.63;5004892;28;20120;-85
2022/05/22 01:01:13;;;;;;;12.55;8.13;;;;;;;12.06;80.56;101716.06;5009093;28;20030;-85
2022/05/22 01:03:38;;;;;;;13.25;7.85;;;;;;;12.03;80.08;101713.53;4999991;28;20030;-85
2022/05/22 01:06:08;;;;;;;10.80;7.35;;;;;;;12.04;80.77;101715.28;4999006;28;20476;-85
2022/05/22 01:08:35;;;;;;;10.38;6.68;;;;;;;12.00;80.99;101711.03;5004715;28;20036;-85
2022/05/22 01:11:04;;;;;;;12.48;6.88;;;;;;;11.98;80.76;101712.00;5007576;28;20117;-85
2022/05/22 01:13:33;;;;;;;12.73;7.03;;;;;;;11.98;80.84;101709.34;5008470;28;20030;-85
2022/05/22 01:15:59;;;;;;;12.20;8.23;;;;;;;12.02;79.76;101703.81;5007321;28;20034;-85
2022/05/22 01:18:26;;;;;;;14.10;8.10;;;;;;;12.04;80.49;101709.06;5005895;28;20026;-85
2022/05/22 01:20:52;;;;;;;14.25;7.78;;;;;;;12.05;80.58;101717.03;5008714;28;20475;-86
2022/05/22 01:23:18;;;;;;;12.30;7.68;;;;;;;12.01;79.63;101709.22;5006878;28;20026;-85
2022/05/22 01:25:44;;;;;;;13.85;8.32;;;;;;;11.99;79.78;101719.06;5007083;28;20112;-85
2022/05/22 01:28:12;;;;;;;16.20;8.80;;;;;;;11.96;80.66;101709.41;5005668;28;20042;-85
2022/05/22 01:30:37;;;;;;;13.80;8.55;;;;;;;11.93;80.11;101710.41;5008010;28;20034;-85
2022/05/22 01:33:04;;;;;;;17.10;8.65;;;;;;;11.96;80.15;101701.41;5006480;28;20192;-85
2022/05/22 01:35:30;;;;;;;19.10;8.88;;;;;;;11.94;79.97;101690.78;5008549;28;20139;-85
2022/05/22 01:37:57;;;;;;;13.05;7.97;;;;;;;11.94;80.11;101689.91;5006725;28;20056;-85
2022/05/22 01:40:22;;;;;;;15.13;8.40;;;;;;;11.89;79.98;101687.47;5004966;28;20105;-85
2022/05/22 01:42:48;;;;;;;16.25;8.15;;;;;;;11.84;80.92;101681.47;5006240;28;20113;-86
2022/05/22 01:45:18;;;;;;;17.30;8.30;;;;;;;11.81;80.29;101683.34;5007798;28;20065;-85
2022/05/22 01:47:44;;;;;;;14.73;8.50;;;;;;;11.74;80.42;101685.41;5004417;28;20100;-85
2022/05/22 01:50:10;;;;;;;12.95;8.38;;;;;;;11.65;80.86;101670.66;5005882;28;20037;-85
2022/05/22 01:52:36;;;;;;;15.10;8.57;;;;;;;11.61;81.06;101670.84;5007766;28;20451;-85
2022/05/22 01:55:01;;;;;;;15.48;8.60;;;;;;;11.54;81.53;101667.59;5006090;28;20122;-85
2022/05/22 01:57:29;;;;;;;15.45;8.38;;;;;;;11.45;81.43;101665.28;5007135;28;20383;-85
2022/05/22 01:59:54;;;;;;;15.63;7.82;;;;;;;11.40;81.68;101669.94;5003956;28;20459;-85
2022/05/22 02:02:19;;;;;;;15.20;8.93;;;;;;;11.35;81.98;101663.94;5001457;28;20076;-85
2022/05/22 02:04:45;;;;;;;15.35;8.00;;;;;;;11.31;81.83;101668.53;5013950;28;20026;-85
2022/05/22 02:09:54;;;;;;;12.27;7.78;;;;;;;11.32;82.19;101674.72;5007072;28;20100;-85
2022/05/22 02:12:19;;;;;;;14.00;8.15;;;;;;;11.28;82.34;101668.63;5007264;28;20130;-85
2022/05/22 02:14:44;;;;;;;14.95;8.18;;;;;;;11.21;82.46;101669.84;5005006;28;20033;-85
2022/05/22 02:17:10;;;;;;;11.82;8.15;;;;;;;11.20;83.17;101668.06;5005815;28;20029;-85
2022/05/22 02:19:35;;;;;;;18.17;8.65;;;;;;;11.13;83.17;101661.28;5006365;28;20034;-85
2022/05/22 02:22:00;;;;;;;18.15;8.50;;;;;;;11.12;82.74;101660.41;5005982;28;20042;-85
2022/05/22 02:24:25;;;;;;;15.45;8.65;;;;;;;11.06;83.21;101659.78;4999355;28;20025;-85
2022/05/22 02:26:51;;;;;;;12.82;8.65;;;;;;;11.04;83.43;101657.19;4998809;28;20026;-85
2022/05/22 02:29:16;;;;;;;14.60;8.50;;;;;;;11.02;83.46;101652.84;4995191;28;20046;-85
2022/05/22 02:31:42;;;;;;;12.02;8.18;;;;;;;10.96;83.52;101644.19;4998919;28;20507;-85
2022/05/22 02:34:07;;;;;;;17.98;8.77;;;;;;;10.91;83.56;101638.16;4996371;28;20061;-85
2022/05/22 02:36:32;;;;;;;14.85;8.35;;;;;;;10.85;83.46;101643.72;5001904;28;20022;-85
2022/05/22 02:38:57;;;;;;;16.73;8.90;;;;;;;10.85;83.72;101637.53;4996400;28;20574;-85
2022/05/22 02:41:25;;;;;;;19.38;8.80;;;;;;;10.82;84.03;101635.84;4999029;28;20084;-85
2022/05/22 02:43:51;;;;;;;22.52;9.32;;;;;;;10.80;83.89;101635.06;4996557;28;20514;-85
2022/05/22 02:46:18;;;;;;;14.82;8.52;;;;;;;10.78;84.19;101628.91;4997216;28;20030;-85
2022/05/22 02:48:44;;;;;;;16.60;8.65;;;;;;;10.75;84.51;101628.19;4995527;28;20042;-85
2022/05/22 02:51:14;;;;;;;17.35;9.02;;;;;;;10.73;84.24;101623.75;4998899;28;20384;-85
2022/05/22 02:53:40;;;;;;;16.02;8.73;;;;;;;10.72;84.23;101623.84;4999588;28;20034;-85
2022/05/22 02:56:13;;;;;;;15.23;8.90;;;;;;;10.66;84.53;101619.63;5007286;28;20033;-85
2022/05/22 02:58:38;;;;;;;17.10;9.43;;;;;;;10.61;84.89;101623.38;5005326;28;20274;-85
2022/05/22 03:01:04;;;;;;;11.88;8.85;;;;;;;10.57;84.82;101613.75;5004045;28;20037;-85
2022/05/22 03:03:30;;;;;;;19.13;8.82;;;;;;;10.58;85.61;101623.50;5006324;28;20037;-85
2022/05/22 03:08:39;;;;;;;16.95;10.10;;;;;;;10.57;85.16;101624.41;5004950;28;20048;-86
2022/05/22 03:11:06;;;;;;;16.08;8.77;;;;;;;10.53;85.21;101626.31;5004561;28;20409;-85
2022/05/22 03:13:31;;;;;;;12.40;8.82;;;;;;;10.51;85.69;101625.53;5006715;28;20487;-85
2022/05/22 03:15:56;;;;;;;16.42;9.48;;;;;;;10.50;85.98;101614.94;5005766;28;20118;-85
2022/05/22 03:18:22;;;;;;;18.73;9.40;;;;;;;10.51;86.12;101619.34;5003530;28;20471;-86
2022/05/22 03:20:47;;;;;;;12.82;8.45;;;;;;;10.51;85.97;101614.00;5006213;28;20395;-85
2022/05/22 03:23:13;;;;;;;13.25;9.00;;;;;;;10.52;85.92;101613.09;5007008;28;20087;-85
2022/05/22 03:25:39;;;;;;;14.52;8.30;;;;;;;10.56;86.09;101612.03;5006642;28;20041;-85
2022/05/22 03:28:05;;;;;;;13.73;9.18;;;;;;;10.53;85.66;101602.38;5003070;28;20113;-85
2022/05/22 03:30:30;;;;;;;14.68;9.40;;;;;;;10.51;85.55;101606.91;5005892;28;20042;-86
2022/05/22 03:32:55;;;;;;;16.08;9.20;;;;;;;10.52;85.90;101607.75;5006927;28;20037;-85
2022/05/22 03:35:21;;;;;;;14.50;8.27;;;;;;;10.47;85.56;101598.16;5006478;28;20049;-86
2022/05/22 03:37:46;;;;;;;13.43;9.40;;;;;;;10.45;85.77;101597.38;5001733;28;20112;-85
2022/05/22 03:40:13;;;;;;;14.75;9.45;;;;;;;10.39;86.32;101596.72;5007218;28;20472;-85
2022/05/22 03:42:38;;;;;;;13.95;8.80;;;;;;;10.34;86.12;101596.03;5006615;28;20503;-85
2022/05/22 03:45:04;;;;;;;14.10;8.95;;;;;;;10.26;86.06;101588.31;5003550;28;20124;-86
2022/05/22 03:47:30;;;;;;;13.45;8.90;;;;;;;10.29;86.48;101584.69;5003907;28;20037;-85
2022/05/22 03:49:55;;;;;;;13.80;9.73;;;;;;;10.27;86.36;101589.19;5008976;28;20789;-85
2022/05/22 03:52:20;;;;;;;15.00;9.05;;;;;;;10.18;86.76;101583.25;5009895;28;20024;-85
2022/05/22 03:54:46;;;;;;;12.95;8.80;;;;;;;10.17;86.69;101580.66;5009264;28;20128;-85
2022/05/22 03:57:11;;;;;;;11.38;8.55;;;;;;;10.16;86.86;101577.16;5007534;28;20432;-85
2022/05/22 03:59:38;;;;;;;16.38;9.48;;;;;;;10.14;87.38;101586.09;4998040;28;20038;-86
2022/05/22 04:02:03;;;;;;;19.15;9.45;;;;;;;10.10;87.35;101581.81;5006063;28;20037;-85
2022/05/22 04:04:29;;;;;;;15.30;9.07;;;;;;;10.09;86.83;101575.63;5010641;28;20030;-85
2022/05/22 04:06:54;;;;;;;12.35;9.38;;;;;;;10.10;86.73;101589.78;5004290;28;20032;-85
2022/05/22 04:09:19;;;;;;;15.43;9.30;;;;;;;10.10;87.05;101581.81;5023667;28;20392;-85
2022/05/22 04:11:45;;;;;;;16.83;9.60;;;;;;;10.12;86.51;101590.63;5009621;28;20025;-85
2022/05/22 04:14:10;;;;;;;13.85;9.52;;;;;;;10.10;87.18;101592.44;5011053;28;20026;-85
2022/05/22 04:16:35;;;;;;;14.32;9.57;;;;;;;10.11;87.45;101596.84;5007542;28;20021;-85
2022/05/22 04:19:00;;;;;;;13.85;9.32;;;;;;;10.07;87.37;101587.22;4998228;28;20032;-85
2022/05/22 04:21:26;;;;;;;14.43;8.82;;;;;;;10.13;87.30;101593.22;5009434;28;20608;-86
2022/05/22 04:26:35;;;;;;;10.63;8.93;;;;;;;10.15;87.08;101591.34;4999031;28;20045;-85
2022/05/22 04:29:00;;;;;;;13.88;9.25;;;;;;;10.16;87.09;101586.91;5007331;28;20038;-85
2022/05/22 04:31:26;;;;;;;13.07;9.48;;;;;;;10.16;86.99;101586.91;5009537;28;20396;-86
2022/05/22 04:33:51;;;;;;;16.98;10.57;;;;;;;10.20;87.17;101585.88;5006062;28;20029;-86
2022/05/22 04:36:16;;;;;;;14.30;10.73;;;;;;;10.20;87.31;101584.09;5006680;28;20037;-85
2022/05/22 04:38:42;;;;;;;18.35;11.10;;;;;;;10.22;87.72;101574.25;5007316;28;20430;-85
2022/05/22 04:41:07;;;;;;;17.15;10.73;;;;;;;10.28;87.58;101578.47;5010223;28;20087;-84
2022/05/22 04:43:33;;;;;;;14.68;10.45;;;;;;;10.31;87.42;101582.84;5010159;28;20269;-85
2022/05/22 04:45:58;;;;;;;13.82;10.45;;;;;;;10.35;87.46;101579.13;5008868;28;20026;-85
2022/05/22 04:48:25;;;;;;;16.52;10.57;;;;;;;10.42;87.79;101578.84;5007435;28;20116;-86
2022/05/22 04:50:52;;;;;;;18.02;10.45;;;;;;;10.48;87.37;101583.03;5005532;28;20380;-86
2022/05/22 04:53:21;;;;;;;13.02;10.18;;;;;;;10.64;86.98;101593.97;5009238;28;20049;-85
2022/05/22 04:55:46;;;;;;;18.48;10.80;;;;;;;10.73;86.49;101594.47;5007408;28;20033;-85
2022/05/22 04:58:12;;;;;;;14.75;10.90;;;;;;;10.85;86.04;101594.91;5001841;28;20025;-85
2022/05/22 05:00:38;;;;;;;21.77;11.75;;;;;;;10.97;85.80;101586.44;5007617;28;20056;-85
2022/05/22 05:03:04;;;;;;;18.00;10.75;;;;;;;11.00;85.14;101586.31;5008764;28;20427;-85
2022/05/22 05:05:29;;;;;;;17.73;11.88;;;;;;;11.01;85.30;101581.84;5009011;28;20034;-85
2022/05/22 05:07:54;;;;;;;17.38;11.00;;;;;;;11.05;85.29;101573.69;5004709;28;20437;-85
2022/05/22 05:10:20;;;;;;;16.35;10.57;;;;;;;11.13;85.18;101582.22;5006361;28;20463;-85
2022/05/22 05:12:46;;;;;;;17.38;10.77;;;;;;;11.15;85.08;101579.47;5007732;28;20044;-86
2022/05/22 05:15:15;;;;;;;16.25;10.70;;;;;;;11.13;84.40;101579.56;5009174;28;20387;-86
2022/05/22 05:17:42;;;;;;;15.30;11.13;;;;;;;11.13;84.71;101578.69;5008003;28;20036;-86
2022/05/22 05:20:08;;;;;;;16.60;11.55;;;;;;;11.17;84.66;101582.97;5007254;28;20065;-85
2022/05/22 05:22:34;;;;;;;15.15;10.60;;;;;;;11.22;84.33;101586.28;5003698;28;20555;-85
2022/05/22 05:24:59;;;;;;;20.48;10.93;;;;;;;11.29;84.00;101581.59;5007335;28;20133;-85
2022/05/22 05:27:24;;;;;;;18.90;11.45;;;;;;;11.41;84.46;101583.69;5008582;28;20377;-86
2022/05/22 05:29:50;;;;;;;17.10;11.45;;;;;;;11.53;83.49;101585.00;5006221;28;20136;-85
2022/05/22 05:32:19;;;;;;;15.23;11.85;;;;;;;11.59;83.26;101576.75;5006405;28;20022;-86
2022/05/22 05:34:44;;;;;;;18.27;11.65;;;;;;;11.70;82.95;101571.78;5008294;28;20038;-85
2022/05/22 05:37:09;;;;;;;17.58;11.35;;;;;;;11.81;83.21;101571.31;5006459;28;20014;-85
2022/05/22 05:39:35;;;;;;;19.38;12.00;;;;;;;11.91;82.07;101581.56;5003951;28;20022;-86
2022/05/22 05:42:00;;;;;;;21.25;12.57;;;;;;;12.01;82.55;101573.13;5006896;28;20188;-86
2022/05/22 05:44:25;;;;;;;17.90;12.05;;;;;;;12.15;81.84;101576.91;5009446;28;20026;-85
2022/05/22 05:46:51;;;;;;;17.98;12.27;;;;;;;12.29;80.78;101576.28;5007257;28;20525;-85
2022/05/22 05:49:16;;;;;;;17.38;12.45;;;;;;;12.43;81.65;101583.63;5005314;28;20026;-85
2022/05/22 05:51:42;;;;;;;21.45;12.55;;;;;;;12.58;79.98;101582.03;5007101;28;20551;-85
2022/05/22 05:54:07;;;;;;;22.00;13.75;;;;;;;12.75;80.44;101576.78;5007261;28;20030;-85
2022/05/22 05:56:37;;;;;;;21.40;12.95;;;;;;;12.92;78.68;101582.16;5005860;28;20037;-86
2022/05/22 05:59:02;;;;;;;17.25;12.77;;;;;;;13.04;78.23;101580.69;5003508;28;20064;-85
2022/05/22 06:01:27;;;;;;;18.75;12.65;;;;;;;13.16;77.35;101576.53;5004341;28;20058;-85
2022/05/22 06:03:53;;;;;;;18.17;13.02;;;;;;;13.39;77.22;101583.44;4997091;28;20506;-87
2022/05/22 06:06:19;;;;;;;17.30;12.40;;;;;;;13.56;77.55;101588.78;5006670;28;20129;-86
2022/05/22 06:08:45;;;;;;;17.13;13.10;;;;;;;13.81;76.26;101584.84;5004744;28;20090;-85
2022/05/22 06:11:10;;;;;;;15.40;12.07;;;;;;;13.96;75.56;101581.34;5006882;28;20030;-85
2022/05/22 06:13:36;;;;;;;18.27;12.43;;;;;;;14.03;74.46;101582.75;5005909;28;20030;-87
2022/05/22 06:16:05;;;;;;;18.27;12.70;;;;;;;14.12;73.93;101578.72;4997818;28;20026;-86
2022/05/22 06:18:30;;;;;;;17.50;12.60;;;;;;;14.34;73.16;101581.97;5005476;28;20124;-87
2022/05/22 06:20:56;;;;;;;20.02;12.30;;;;;;;14.47;71.67;101568.75;5002140;28;20061;-84
2022/05/22 06:23:21;;;;;;;18.23;12.45;;;;;;;14.62;71.58;101581.31;5007322;28;20029;-85
2022/05/22 06:25:46;;;;;;;16.85;11.32;;;;;;;14.74;70.66;101576.22;5005526;28;20073;-85
2022/05/22 06:28:13;;;;;;;15.07;11.60;;;;;;;15.02;70.42;101591.59;5005388;28;20442;-85
2022/05/22 06:30:38;;;;;;;17.15;12.32;;;;;;;15.25;69.58;101595.63;5002117;28;20029;-86
2022/05/22 06:33:12;;;;;;;20.48;11.95;;;;;;;15.38;69.31;101596.63;5008472;28;20030;-85
2022/05/22 06:35:41;;;;;;;16.17;12.50;;;;;;;15.51;68.58;101597.63;5008645;28;20037;-85
2022/05/22 06:38:07;;;;;;;16.95;12.00;;;;;;;15.76;67.67;101591.69;5002224;28;20375;-86
2022/05/22 06:40:33;;;;;;;19.88;11.45;;;;;;;16.13;65.94;101592.94;4998973;28;20030;-85
2022/05/22 06:43:01;;;;;;;18.10;11.40;;;;;;;16.39;66.45;101596.72;5007159;28;20030;-85
2022/05/22 06:45:28;;;;;;;17.98;11.07;;;;;;;16.59;65.14;101592.72;5006794;28;20164;-86
2022/05/22 06:47:53;;;;;;;16.92;11.40;;;;;;;16.71;64.02;101595.59;5004351;28;20034;-86
2022/05/22 06:50:24;;;;;;;17.13;11.70;;;;;;;16.76;63.91;101588.13;5006009;28;20084;-85
2022/05/22 06:52:49;;;;;;;16.23;10.88;;;;;;;16.86;63.33;101584.75;5007073;28;20038;-86
2022/05/22 06:55:16;;;;;;;12.77;10.95;;;;;;;16.84;63.32;101589.34;5005085;28;20030;-85
2022/05/22 06:57:42;;;;;;;16.70;12.07;;;;;;;16.81;61.96;101589.56;5001605;28;20598;-86
2022/05/22 07:00:15;;;;;;;17.35;11.45;;;;;;;16.95;62.77;101582.44;5002214;28;20045;-85
2022/05/22 07:02:41;;;;;;;16.58;12.18;;;;;;;16.93;63.18;101590.59;5002894;28;20034;-85
2022/05/22 07:05:08;;;;;;;15.15;11.32;;;;;;;16.90;62.21;101590.78;5006480;28;20092;-86
2022/05/22 07:07:34;;;;;;;21.38;12.20;;;;;;;16.98;62.97;101595.69;5005440;28;20428;-86
2022/05/22 07:10:00;;;;;;;16.42;11.25;;;;;;;17.03;62.75;101590.84;5006303;28;20120;-86
2022/05/22 07:12:25;;;;;;;14.77;11.27;;;;;;;17.33;62.15;101588.78;5006125;28;20062;-86
2022/05/22 07:14:55;;;;;;;14.50;10.98;;;;;;;17.84;61.30;101585.34;5003487;28;20033;-85
2022/05/22 07:17:24;;;;;;;15.70;11.27;;;;;;;18.47;59.18;101580.91;5005967;28;20483;-85
2022/05/22 07:19:53;;;;;;;20.95;11.20;;;;;;;19.03;57.23;101582.16;5000638;28;20026;-86
2022/05/22 07:22:18;;;;;;;15.77;10.30;;;;;;;19.54;55.13;101581.00;5002891;28;20080;-87
2022/05/22 07:24:43;;;;;;;13.98;9.23;;;;;;;19.72;53.81;101579.63;5008220;28;20205;-86
2022/05/22 07:27:09;;;;;;;15.35;10.45;;;;;;;19.75;52.92;101584.78;5008659;28;20109;-85
2022/05/22 07:29:35;;;;;;;14.85;9.70;;;;;;;19.85;54.06;101587.63;5009307;28;20038;-86
2022/05/22 07:32:04;;;;;;;16.35;9.95;;;;;;;20.11;52.22;101583.75;5009265;28;20030;-86
2022/05/22 07:34:30;;;;;;;13.48;8.80;;;;;;;20.03;52.57;101583.50;5011568;28;20025;-86
2022/05/22 07:37:01;;;;;;;12.90;8.57;;;;;;;20.29;52.72;101578.72;5007802;28;20119;-86
2022/05/22 07:39:26;;;;;;;14.63;8.65;;;;;;;20.94;51.21;101573.47;5007972;28;20034;-86
2022/05/22 07:41:51;;;;;;;13.82;9.05;;;;;;;21.36;48.88;101572.63;5005766;28;20064;-85
2022/05/22 07:44:17;;;;;;;12.75;8.82;;;;;;;21.79;46.96;101573.50;5007438;28;20628;-86
2022/05/22 07:46:42;;;;;;;14.88;9.10;;;;;;;22.23;46.05;101577.75;5007239;28;20045;-87
2022/05/22 07:49:08;;;;;;;12.23;7.93;;;;;;;22.61;45.60;101571.63;5010222;28;20614;-86
2022/05/22 07:51:33;;;;;;;14.05;7.97;;;;;;;23.26;44.95;101566.59;5010240;28;20044;-86
2022/05/22 07:53:58;;;;;;;15.57;7.50;;;;;;;23.47;41.99;101563.72;5011859;28;20034;-85
2022/05/22 07:56:24;;;;;;;9.18;5.15;;;;;;;23.46;40.28;101564.72;5008591;28;20025;-87
2022/05/22 07:58:50;;;;;;;8.15;2.97;;;;;;;23.36;37.70;101564.72;5008276;28;20446;-87
2022/05/22 08:01:17;;;;;;;6.57;2.80;;;;;;;23.35;38.42;101552.13;5009367;28;20138;-86
2022/05/22 08:03:42;;;;;;;8.75;5.00;;;;;;;23.56;39.83;101551.97;5008689;28;20029;-86
2022/05/22 08:06:07;;;;;;;8.95;3.95;;;;;;;23.51;37.74;101542.56;5010124;28;20030;-86
2022/05/22 08:08:33;;;;;;;7.05;3.90;;;;;;;23.40;37.24;101545.41;5001555;28;20038;-86
2022/05/22 08:10:59;;;;;;;8.20;5.22;;;;;;;23.32;38.19;101554.28;5003408;28;20026;-88
2022/05/22 08:13:25;;;;;;;9.10;5.20;;;;;;;23.67;38.58;101555.59;5007662;28;20041;-88
2022/05/22 08:15:50;;;;;;;10.00;5.50;;;;;;;24.29;38.50;101552.22;5011273;28;20055;-88
2022/05/22 08:18:16;;;;;;;13.88;5.80;;;;;;;24.54;37.27;101541.69;5009895;28;20025;-88
2022/05/22 08:20:43;;;;;;;7.93;5.07;;;;;;;24.78;35.52;101528.31;5010758;28;20053;-87
2022/05/22 08:23:19;;;;;;;9.63;4.78;;;;;;;25.47;36.97;101528.66;5011094;28;20028;-88
2022/05/22 08:25:45;;;;;;;9.50;4.13;;;;;;;25.81;34.09;101520.56;5009867;28;20050;-87
2022/05/22 08:28:10;;;;;;;7.95;3.65;;;;;;;26.06;32.29;101518.84;5008273;28;20062;-86
2022/05/22 08:30:36;;;;;;;7.20;3.22;;;;;;;26.44;32.31;101513.88;5010683;28;20033;-88
2022/05/22 08:33:02;;;;;;;9.52;3.78;;;;;;;26.55;31.48;101519.06;5010646;28;20061;-88
2022/05/22 08:35:31;;;;;;;6.00;3.10;;;;;;;25.86;31.58;101512.75;5011138;28;20060;-87
2022/05/22 08:37:58;;;;;;;9.05;4.00;;;;;;;25.93;32.14;101515.69;5008734;28;20065;-87
2022/05/22 08:40:25;;;;;;;4.82;3.15;;;;;;;26.31;31.69;101506.16;5010793;28;20026;-87
2022/05/22 08:43:04;;;;;;;8.38;3.63;;;;;;;26.46;33.37;101500.94;5010326;28;20034;-87
2022/05/22 08:45:56;;;;;;;6.50;2.70;;;;;;;26.55;32.38;101506.28;5009956;28;20058;-87
2022/05/22 08:48:41;;;;;;;6.95;2.63;;;;;;;26.62;32.94;101484.59;4992796;28;20061;-87
2022/05/22 08:51:15;;;;;;;12.38;3.33;;;;;;;26.23;32.17;101489.75;5007016;28;20033;-86
2022/05/22 08:53:47;;;;;;;11.13;4.32;;;;;;;26.24;30.67;101488.72;5009439;28;20041;-86
2022/05/22 08:59:34;;;;;;;8.40;3.88;;;;;;;27.55;30.85;101490.66;5009641;28;20121;-85
2022/05/22 09:02:24;;;;;;;10.05;5.38;;;;;;;27.73;30.09;101485.00;5007684;28;20033;-85
2022/05/22 09:04:56;;;;;;;8.18;5.60;;;;;;;28.37;29.52;101486.84;5009711;28;20026;-86
2022/05/22 09:07:35;;;;;;;12.65;5.25;;;;;;;28.38;28.96;101474.84;5005928;28;20038;-86
2022/05/22 09:10:06;;;;;;;7.80;5.18;;;;;;;28.37;28.92;101484.09;4989687;28;20030;-86
2022/05/22 09:12:41;;;;;;;8.45;5.10;;;;;;;28.91;28.73;101478.59;4990006;28;20022;-86
2022/05/22 09:15:17;;;;;;;12.00;5.10;;;;;;;29.43;29.22;101461.38;5009035;28;20053;-88
2022/05/22 09:18:10;;;;;;;8.23;5.10;;;;;;;29.79;28.63;101458.81;5008130;28;20387;-85
2022/05/22 09:20:55;;;;;;;7.57;4.85;;;;;;;29.82;26.82;101463.91;4990523;28;20035;-85
2022/05/22 09:23:59;;;;;;;13.05;6.22;;;;;;;30.06;27.75;101460.03;4990155;28;20038;-85
2022/05/22 09:26:43;;;;;;;10.20;5.85;;;;;;;29.65;27.20;101460.50;4990633;28;20496;-85
2022/05/22 09:29:39;;;;;;;10.52;5.47;;;;;;;29.63;28.04;101454.34;5002199;28;20136;-87
2022/05/22 09:32:33;;;;;;;7.50;5.38;;;;;;;29.70;27.77;101459.94;5008556;28;20049;-88
2022/05/22 09:35:05;;;;;;;;;;;;;;;30.38;28.62;101463.38;5006585;28;20037;-89
2022/05/22 09:38:12;;;;;;;9.17;5.30;;;;;;;29.77;28.81;101456.25;5006745;28;19917;-88
2022/05/22 09:40:46;;;;;;;10.10;5.78;;;;;;;29.72;28.02;101458.72;5008855;28;20096;-86
2022/05/22 09:43:49;;;;;;;10.15;5.20;;;;;;;30.86;27.87;101453.59;5009506;28;20088;-87
2022/05/22 09:46:28;;;;;;;9.97;4.87;;;;;;;31.49;24.91;101451.81;5008348;28;20042;-87
2022/05/22 09:49:30;;;;;;;10.68;5.78;;;;;;;31.85;25.85;101442.53;5007339;28;20064;-90
2022/05/22 09:51:58;;;;;;;11.45;5.88;;;;;;;31.26;24.50;101456.69;4993434;28;20088;-88
2022/05/22 09:55:02;;;;;;;11.60;6.10;;;;;;;31.02;25.90;101438.75;5009441;28;20112;-89
2022/05/22 09:57:30;;;;;;;10.30;5.70;;;;;;;31.06;25.07;101447.41;5003816;28;20041;-87
2022/05/22 10:00:04;;;;;;;8.02;5.35;;;;;;;31.50;24.59;101450.75;5007660;28;20471;-89
2022/05/22 10:02:48;;;;;;;8.27;5.18;;;;;;;32.53;23.68;101431.59;5009279;28;20040;-88
2022/05/22 10:05:31;;;;;;;9.80;5.53;;;;;;;34.27;23.03;101433.13;5009362;28;20121;-89
2022/05/22 10:08:14;;;;;;;9.63;5.38;;;;;;;34.22;23.50;101441.22;5007199;28;20841;-90
2022/05/22 10:11:06;;;;;;;10.38;6.35;;;;;;;33.11;22.87;101445.69;5007110;28;20041;-90
2022/05/22 10:13:52;;;;;;;10.90;6.00;;;;;;;32.70;23.25;101437.56;5008040;28;20385;-91
2022/05/22 10:16:56;;;;;;;10.10;5.90;;;;;;;32.34;24.61;101437.88;5006168;28;20053;-89
2022/05/22 10:19:46;;;;;;;11.43;6.78;;;;;;;30.42;26.58;101429.84;4979540;28;20066;-89
2022/05/22 10:22:24;;;;;;;11.18;6.63;;;;;;;29.35;27.87;101429.44;4991367;28;20434;-90
2022/05/22 10:25:08;;;;;;;10.63;6.03;;;;;;;29.45;28.91;101430.00;5007797;28;20715;-89
2022/05/22 10:27:46;;;;;;;12.35;6.88;;;;;;;29.41;27.67;101425.94;5021077;28;20554;-88
2022/05/22 10:30:18;;;;;;;10.88;6.57;;;;;;;30.46;27.03;101416.59;5008420;28;20033;-89
2022/05/22 10:33:09;;;;;;;11.55;6.70;;;;;;;32.49;25.05;101413.78;5006109;28;20260;-89
2022/05/22 10:35:50;;;;;;;10.93;6.10;;;;;;;33.83;22.62;101423.72;5007349;28;20120;-91
2022/05/22 10:38:21;;;;;;;10.52;6.00;;;;;;;34.91;22.01;101415.50;5007685;28;20498;-89
2022/05/22 10:43:36;;;;;;;9.52;6.30;;;;;;;36.07;18.54;101413.91;5006935;28;20084;-86
2022/05/22 10:46:01;;;;;;;12.63;6.80;;;;;;;35.03;20.27;101402.69;5005975;28;20037;-87
2022/05/22 10:48:28;;;;;;;10.20;7.32;;;;;;;32.53;23.02;101394.94;5005466;28;20029;-87
2022/05/22 10:51:04;;;;;;;11.43;7.38;;;;;;;30.51;25.68;101392.13;5021835;28;20112;-87
2022/05/22 10:53:29;;;;;;;9.13;6.20;;;;;;;29.98;26.19;101391.50;5009271;28;20246;-85
2022/05/22 10:56:15;;;;;;;12.07;7.87;;;;;;;30.46;25.91;101391.88;5007131;28;20492;-87
2022/05/22 10:58:52;;;;;;;20.75;8.30;;;;;;;31.44;24.97;101385.56;4989064;28;20531;-86
2022/05/22 11:01:21;;;;;;;9.70;7.07;;;;;;;30.34;25.76;101380.53;4992617;28;20034;-88
2022/05/22 11:03:47;;;;;;;9.18;6.57;;;;;;;28.83;26.81;101375.41;5007125;28;20399;-88
2022/05/22 11:06:21;;;;;;;10.63;6.18;;;;;;;28.17;29.34;101372.28;5009314;28;20750;-88
2022/05/22 11:08:50;;;;;;;11.45;6.80;;;;;;;28.56;28.38;101371.38;5009621;28;20040;-87
2022/05/22 11:11:18;;;;;;;10.90;6.20;;;;;;;31.21;25.58;101373.94;5011149;28;20539;-86
2022/05/22 11:13:45;;;;;;;12.80;6.53;;;;;;;33.14;21.92;101370.78;5011307;28;20476;-86
2022/05/22 11:16:25;;;;;;;11.15;6.47;;;;;;;34.69;22.12;101365.25;5008070;28;20762;-88
2022/05/22 11:19:02;;;;;;;9.98;5.78;;;;;;;35.76;20.90;101370.63;5009311;28;20470;-86
2022/05/22 11:21:53;;;;;;;9.30;6.40;;;;;;;36.36;19.62;101360.41;5010474;28;20048;-86
2022/05/22 11:24:50;;;;;;;7.25;5.80;;;;;;;36.67;19.07;101354.88;4969931;28;20489;-88
2022/05/22 11:27:43;;;;;;;10.38;6.70;;;;;;;37.71;20.06;101339.28;4956600;28;20178;-87
2022/05/22 11:30:27;;;;;;;11.02;6.45;;;;;;;37.02;18.88;101333.56;4968603;28;20090;-87
2022/05/22 11:33:17;;;;;;;11.35;7.63;;;;;;;35.79;19.54;101340.53;4969507;28;20027;-87
2022/05/22 11:35:53;;;;;;;9.73;6.20;;;;;;;33.28;21.17;101332.16;4963809;28;20058;-86
2022/05/22 11:38:43;;;;;;;9.38;6.00;;;;;;;34.56;21.70;101330.28;4953261;28;20039;-89
2022/05/22 11:41:23;;;;;;;8.90;5.88;;;;;;;34.90;20.47;101322.53;4964789;28;20046;-88
2022/05/22 11:44:17;;;;;;;9.70;5.63;;;;;;;34.04;21.53;101315.75;4953152;28;20150;-89